Methoni, Greece
Current Conditions -  °F | °C
As of 9:50 PM on Tuesday 27 Jan 2015 (Local Time) from LGKL Reporting Station
Few Clouds Few Clouds  
Wind Chill: 43°   Ceiling: Unl
Heat Index: 43°   Visibility: 6mi
Dew Point: 41°   Wind: 0mph
Humidity: 93%   Direction: NA
Pressure: 29.83"   Gusts: NA
Location:  36.82°N, 21.7°E
Report Text: LGKL 271850Z 00000KT 9999 FEW020TCU 06/05 Q1010
Loading
Personal Weather Stations






























Interactive Weather Map New forecast layout! Learn more

10-Day Weather Forecast

Advertisements
Track Severe Weather on mobile